TimePDT,TemperatureF,Dew PointF,Humidity,Sea Level PressureIn,VisibilityMPH,Wind Direction,Wind SpeedMPH,Gust SpeedMPH,PrecipitationIn,Events,Conditions,WindDirDegrees,DateUTC
12:53 AM,57.0,51.1,81,30.01,10.0,WSW,13.8,-,N/A,,Mostly Cloudy,250,2014-05-17 07:53:00
1:50 AM,57.2,51.8,82,30.01,10.0,West,13.8,-,N/A,,Mostly Cloudy,260,2014-05-17 08:50:00
1:53 AM,57.0,52.0,83,30.00,10.0,WSW,12.7,-,N/A,,Mostly Cloudy,250,2014-05-17 08:53:00
2:53 AM,57.0,51.1,81,30.00,10.0,WSW,11.5,-,N/A,,Mostly Cloudy,250,2014-05-17 09:53:00
3:53 AM,55.9,51.1,84,29.99,10.0,WSW,11.5,-,N/A,,Overcast,250,2014-05-17 10:53:00
4:05 AM,55.4,51.8,88,30.00,10.0,WSW,10.4,-,N/A,,Overcast,250,2014-05-17 11:05:00
4:53 AM,55.9,50.0,80,29.99,10.0,WSW,12.7,-,N/A,,Overcast,250,2014-05-17 11:53:00
5:53 AM,55.9,50.0,80,29.99,10.0,SW,3.5,-,N/A,,Mostly Cloudy,230,2014-05-17 12:53:00
6:53 AM,55.9,50.0,80,30.00,10.0,West,11.5,-,N/A,,Mostly Cloudy,270,2014-05-17 13:53:00
7:53 AM,57.9,51.1,78,30.00,10.0,WSW,4.6,-,N/A,,Mostly Cloudy,240,2014-05-17 14:53:00
8:53 AM,60.1,50.0,69,30.02,10.0,West,13.8,-,N/A,,Mostly Cloudy,260,2014-05-17 15:53:00
9:53 AM,59.0,50.0,72,30.02,10.0,West,19.6,25.3,N/A,,Mostly Cloudy,260,2014-05-17 16:53:00
10:03 AM,60.8,51.8,72,30.02,10.0,West,16.1,-,N/A,,Mostly Cloudy,260,2014-05-17 17:03:00
10:53 AM,62.1,50.0,65,30.02,10.0,WSW,16.1,-,N/A,,Mostly Cloudy,250,2014-05-17 17:53:00
11:32 AM,62.6,51.8,68,30.03,10.0,WSW,10.4,20.7,N/A,,Mostly Cloudy,250,2014-05-17 18:32:00
11:53 AM,63.0,50.0,63,30.03,10.0,West,11.5,-,N/A,,Mostly Cloudy,260,2014-05-17 18:53:00
12:53 PM,63.0,50.0,63,30.02,10.0,West,11.5,-,N/A,,Mostly Cloudy,260,2014-05-17 19:53:00
1:53 PM,66.0,50.0,56,30.02,10.0,West,15.0,21.9,N/A,,Mostly Cloudy,270,2014-05-17 20:53:00
2:53 PM,66.0,50.0,56,30.01,10.0,West,13.8,-,N/A,,Mostly Cloudy,270,2014-05-17 21:53:00
3:53 PM,64.9,51.1,61,30.00,10.0,West,18.4,-,N/A,,Mostly Cloudy,270,2014-05-17 22:53:00
4:53 PM,64.0,51.1,63,29.99,10.0,West,17.3,-,N/A,,Mostly Cloudy,260,2014-05-17 23:53:00
5:53 PM,62.1,51.1,67,29.99,10.0,West,16.1,-,N/A,,Mostly Cloudy,270,2014-05-18 00:53:00
6:53 PM,62.1,50.0,65,29.97,10.0,West,12.7,-,N/A,,Mostly Cloudy,280,2014-05-18 01:53:00
7:53 PM,61.0,50.0,67,29.97,10.0,West,17.3,23.0,N/A,,Mostly Cloudy,280,2014-05-18 02:53:00
8:53 PM,59.0,50.0,72,29.98,10.0,WNW,15.0,-,N/A,,Mostly Cloudy,290,2014-05-18 03:53:00
9:53 PM,59.0,50.0,72,29.99,10.0,West,10.4,-,N/A,,Scattered Clouds,280,2014-05-18 04:53:00
10:53 PM,57.9,50.0,75,30.00,10.0,West,10.4,-,N/A,,Scattered Clouds,270,2014-05-18 05:53:00
11:53 PM,57.9,50.0,75,29.99,10.0,West,12.7,-,N/A,,Scattered Clouds,270,2014-05-18 06:53:00